sensor_id;sensor_type;location;lat;lon;timestamp;P1;durP1;ratioP1;P2;durP2;ratioP2
13943;SDS011;7044;53.286;8.534;2022-07-23T00:00:06;3.50;;;1.77;;
13943;SDS011;7044;53.286;8.534;2022-07-23T00:02:34;7.28;;;2.10;;
13943;SDS011;7044;53.286;8.534;2022-07-23T00:05:01;3.33;;;1.70;;
13943;SDS011;7044;53.286;8.534;2022-07-23T00:07:29;1.73;;;1.63;;
13943;SDS011;7044;53.286;8.534;2022-07-23T00:09:55;6.07;;;1.67;;
13943;SDS011;7044;53.286;8.534;2022-07-23T00:12:22;4.28;;;1.85;;
13943;SDS011;7044;53.286;8.534;2022-07-23T00:14:50;4.85;;;1.60;;
13943;SDS011;7044;53.286;8.534;2022-07-23T00:17:17;2.97;;;1.83;;
13943;SDS011;7044;53.286;8.534;2022-07-23T00:19:44;7.63;;;1.80;;
13943;SDS011;7044;53.286;8.534;2022-07-23T00:22:11;2.00;;;1.42;;
13943;SDS011;7044;53.286;8.534;2022-07-23T00:24:38;4.13;;;1.50;;
13943;SDS011;7044;53.286;8.534;2022-07-23T00:27:05;1.63;;;1.30;;
13943;SDS011;7044;53.286;8.534;2022-07-23T00:29:31;5.68;;;1.60;;
13943;SDS011;7044;53.286;8.534;2022-07-23T00:31:59;2.45;;;1.33;;
13943;SDS011;7044;53.286;8.534;2022-07-23T00:34:26;2.60;;;1.48;;
13943;SDS011;7044;53.286;8.534;2022-07-23T00:36:53;2.60;;;1.50;;
13943;SDS011;7044;53.286;8.534;2022-07-23T00:39:20;7.28;;;1.58;;
13943;SDS011;7044;53.286;8.534;2022-07-23T00:41:47;10.05;;;1.73;;
13943;SDS011;7044;53.286;8.534;2022-07-23T00:44:16;4.38;;;1.63;;
13943;SDS011;7044;53.286;8.534;2022-07-23T00:46:44;3.95;;;1.30;;
13943;SDS011;7044;53.286;8.534;2022-07-23T00:49:13;4.15;;;1.23;;
13943;SDS011;7044;53.286;8.534;2022-07-23T00:51:40;3.80;;;1.40;;
13943;SDS011;7044;53.286;8.534;2022-07-23T00:54:07;2.38;;;1.50;;
13943;SDS011;7044;53.286;8.534;2022-07-23T00:56:34;4.32;;;1.50;;
13943;SDS011;7044;53.286;8.534;2022-07-23T00:59:02;5.15;;;1.70;;
13943;SDS011;7044;53.286;8.534;2022-07-23T01:01:29;4.82;;;1.77;;
13943;SDS011;7044;53.286;8.534;2022-07-23T01:03:55;1.70;;;1.60;;
13943;SDS011;7044;53.286;8.534;2022-07-23T01:06:23;5.60;;;1.70;;
13943;SDS011;7044;53.286;8.534;2022-07-23T01:08:50;1.73;;;1.40;;
13943;SDS011;7044;53.286;8.534;2022-07-23T01:11:17;4.40;;;1.95;;
13943;SDS011;7044;53.286;8.534;2022-07-23T01:13:45;3.42;;;1.88;;
13943;SDS011;7044;53.286;8.534;2022-07-23T01:16:12;3.50;;;1.50;;
13943;SDS011;7044;53.286;8.534;2022-07-23T01:18:39;2.67;;;1.60;;
13943;SDS011;7044;53.286;8.534;2022-07-23T01:21:05;1.75;;;1.42;;
13943;SDS011;7044;53.286;8.534;2022-07-23T01:23:34;5.93;;;2.00;;
13943;SDS011;7044;53.286;8.534;2022-07-23T01:26:01;4.97;;;2.00;;
13943;SDS011;7044;53.286;8.534;2022-07-23T01:28:27;2.85;;;1.80;;
13943;SDS011;7044;53.286;8.534;2022-07-23T01:30:54;1.48;;;1.38;;
13943;SDS011;7044;53.286;8.534;2022-07-23T01:33:21;4.72;;;1.58;;
13943;SDS011;7044;53.286;8.534;2022-07-23T01:35:48;5.55;;;1.80;;
13943;SDS011;7044;53.286;8.534;2022-07-23T01:38:14;6.78;;;1.77;;
13943;SDS011;7044;53.286;8.534;2022-07-23T01:40:42;3.20;;;2.15;;
13943;SDS011;7044;53.286;8.534;2022-07-23T01:43:09;5.00;;;1.90;;
13943;SDS011;7044;53.286;8.534;2022-07-23T01:45:36;7.53;;;2.03;;
13943;SDS011;7044;53.286;8.534;2022-07-23T01:48:03;4.15;;;1.23;;
13943;SDS011;7044;53.286;8.534;2022-07-23T01:50:31;2.78;;;1.45;;
13943;SDS011;7044;53.286;8.534;2022-07-23T01:52:57;4.53;;;1.60;;
13943;SDS011;7044;53.286;8.534;2022-07-23T01:55:24;6.90;;;1.88;;
13943;SDS011;7044;53.286;8.534;2022-07-23T01:57:52;2.05;;;1.60;;
13943;SDS011;7044;53.286;8.534;2022-07-23T02:00:19;4.03;;;1.50;;
13943;SDS011;7044;53.286;8.534;2022-07-23T02:02:46;4.45;;;1.98;;
13943;SDS011;7044;53.286;8.534;2022-07-23T02:05:13;5.20;;;1.90;;
13943;SDS011;7044;53.286;8.534;2022-07-23T02:07:40;5.00;;;1.90;;
13943;SDS011;7044;53.286;8.534;2022-07-23T02:10:07;3.53;;;1.88;;
13943;SDS011;7044;53.286;8.534;2022-07-23T02:12:34;3.50;;;1.88;;
13943;SDS011;7044;53.286;8.534;2022-07-23T02:15:03;3.08;;;1.63;;
13943;SDS011;7044;53.286;8.534;2022-07-23T02:17:30;2.25;;;1.90;;
13943;SDS011;7044;53.286;8.534;2022-07-23T02:19:57;1.90;;;1.80;;
13943;SDS011;7044;53.286;8.534;2022-07-23T02:22:24;2.10;;;1.88;;
13943;SDS011;7044;53.286;8.534;2022-07-23T02:24:50;2.17;;;1.83;;
13943;SDS011;7044;53.286;8.534;2022-07-23T02:27:17;2.47;;;1.95;;
13943;SDS011;7044;53.286;8.534;2022-07-23T02:29:44;2.20;;;1.80;;
13943;SDS011;7044;53.286;8.534;2022-07-23T02:32:12;1.85;;;1.75;;
13943;SDS011;7044;53.286;8.534;2022-07-23T02:34:39;5.38;;;2.20;;
13943;SDS011;7044;53.286;8.534;2022-07-23T02:37:06;2.35;;;2.10;;
13943;SDS011;7044;53.286;8.534;2022-07-23T02:39:33;5.13;;;2.33;;
13943;SDS011;7044;53.286;8.534;2022-07-23T02:42:01;4.18;;;2.10;;
13943;SDS011;7044;53.286;8.534;2022-07-23T02:44:28;3.70;;;1.92;;
13943;SDS011;7044;53.286;8.534;2022-07-23T02:46:54;2.13;;;1.70;;
13943;SDS011;7044;53.286;8.534;2022-07-23T02:49:23;2.28;;;1.50;;
13943;SDS011;7044;53.286;8.534;2022-07-23T02:51:49;4.28;;;1.90;;
13943;SDS011;7044;53.286;8.534;2022-07-23T02:54:17;2.53;;;1.83;;
13943;SDS011;7044;53.286;8.534;2022-07-23T02:56:43;2.90;;;2.17;;
13943;SDS011;7044;53.286;8.534;2022-07-23T02:59:10;7.65;;;2.25;;
13943;SDS011;7044;53.286;8.534;2022-07-23T03:01:37;2.45;;;2.05;;
13943;SDS011;7044;53.286;8.534;2022-07-23T03:04:04;4.82;;;2.00;;
13943;SDS011;7044;53.286;8.534;2022-07-23T03:06:33;3.90;;;2.20;;
13943;SDS011;7044;53.286;8.534;2022-07-23T03:08:59;5.07;;;2.10;;
13943;SDS011;7044;53.286;8.534;2022-07-23T03:11:26;4.60;;;2.03;;
13943;SDS011;7044;53.286;8.534;2022-07-23T03:13:53;4.13;;;2.17;;
13943;SDS011;7044;53.286;8.534;2022-07-23T03:16:20;2.42;;;1.90;;
13943;SDS011;7044;53.286;8.534;2022-07-23T03:18:47;5.78;;;2.03;;
13943;SDS011;7044;53.286;8.534;2022-07-23T03:21:13;6.57;;;2.10;;
13943;SDS011;7044;53.286;8.534;2022-07-23T03:23:42;4.82;;;1.98;;
13943;SDS011;7044;53.286;8.534;2022-07-23T03:26:09;2.22;;;1.80;;
13943;SDS011;7044;53.286;8.534;2022-07-23T03:28:35;4.75;;;2.72;;
13943;SDS011;7044;53.286;8.534;2022-07-23T03:31:02;9.07;;;2.10;;
13943;SDS011;7044;53.286;8.534;2022-07-23T03:33:29;4.57;;;2.03;;
13943;SDS011;7044;53.286;8.534;2022-07-23T03:35:56;4.72;;;2.30;;
13943;SDS011;7044;53.286;8.534;2022-07-23T03:38:22;3.55;;;2.15;;
13943;SDS011;7044;53.286;8.534;2022-07-23T03:40:50;3.13;;;1.95;;
13943;SDS011;7044;53.286;8.534;2022-07-23T03:43:17;3.00;;;2.70;;
13943;SDS011;7044;53.286;8.534;2022-07-23T03:45:44;4.00;;;2.05;;
13943;SDS011;7044;53.286;8.534;2022-07-23T03:48:11;2.60;;;2.20;;
13943;SDS011;7044;53.286;8.534;2022-07-23T03:50:37;3.05;;;2.10;;
13943;SDS011;7044;53.286;8.534;2022-07-23T03:53:05;4.07;;;2.30;;
13943;SDS011;7044;53.286;8.534;2022-07-23T03:55:32;3.00;;;2.15;;
13943;SDS011;7044;53.286;8.534;2022-07-23T03:58:00;3.92;;;2.30;;
13943;SDS011;7044;53.286;8.534;2022-07-23T04:00:27;4.90;;;2.17;;
13943;SDS011;7044;53.286;8.534;2022-07-23T04:02:54;6.93;;;2.10;;
13943;SDS011;7044;53.286;8.534;2022-07-23T04:05:21;4.88;;;2.25;;
13943;SDS011;7044;53.286;8.534;2022-07-23T04:07:48;4.63;;;2.28;;
13943;SDS011;7044;53.286;8.534;2022-07-23T04:10:14;7.07;;;2.55;;
13943;SDS011;7044;53.286;8.534;2022-07-23T04:12:41;5.80;;;2.70;;
13943;SDS011;7044;53.286;8.534;2022-07-23T04:15:09;3.40;;;2.60;;
13943;SDS011;7044;53.286;8.534;2022-07-23T04:17:36;4.78;;;2.72;;
13943;SDS011;7044;53.286;8.534;2022-07-23T04:20:03;4.60;;;2.47;;
13943;SDS011;7044;53.286;8.534;2022-07-23T04:22:31;4.85;;;2.78;;
13943;SDS011;7044;53.286;8.534;2022-07-23T04:24:57;3.83;;;2.40;;
13943;SDS011;7044;53.286;8.534;2022-07-23T04:27:24;4.18;;;2.90;;
13943;SDS011;7044;53.286;8.534;2022-07-23T04:29:51;5.50;;;2.83;;
13943;SDS011;7044;53.286;8.534;2022-07-23T04:32:19;3.35;;;2.65;;
13943;SDS011;7044;53.286;8.534;2022-07-23T04:34:46;8.35;;;3.15;;
13943;SDS011;7044;53.286;8.534;2022-07-23T04:37:13;3.95;;;2.83;;
13943;SDS011;7044;53.286;8.534;2022-07-23T04:39:40;3.97;;;2.63;;
13943;SDS011;7044;53.286;8.534;2022-07-23T04:42:07;4.55;;;2.47;;
13943;SDS011;7044;53.286;8.534;2022-07-23T04:44:33;3.00;;;2.70;;
13943;SDS011;7044;53.286;8.534;2022-07-23T04:47:00;3.50;;;2.15;;
13943;SDS011;7044;53.286;8.534;2022-07-23T04:49:28;4.32;;;2.50;;
13943;SDS011;7044;53.286;8.534;2022-07-23T04:51:55;5.25;;;2.67;;
13943;SDS011;7044;53.286;8.534;2022-07-23T04:54:22;5.40;;;2.80;;
13943;SDS011;7044;53.286;8.534;2022-07-23T04:56:49;4.05;;;2.33;;
13943;SDS011;7044;53.286;8.534;2022-07-23T04:59:15;2.78;;;2.47;;
13943;SDS011;7044;53.286;8.534;2022-07-23T05:01:42;3.90;;;2.55;;
13943;SDS011;7044;53.286;8.534;2022-07-23T05:04:09;3.20;;;2.30;;
13943;SDS011;7044;53.286;8.534;2022-07-23T05:06:37;3.30;;;2.20;;
13943;SDS011;7044;53.286;8.534;2022-07-23T05:09:04;6.35;;;2.42;;
13943;SDS011;7044;53.286;8.534;2022-07-23T05:11:30;2.88;;;2.47;;
13943;SDS011;7044;53.286;8.534;2022-07-23T05:13:57;2.38;;;2.17;;
13943;SDS011;7044;53.286;8.534;2022-07-23T05:16:24;2.17;;;1.95;;
13943;SDS011;7044;53.286;8.534;2022-07-23T05:18:51;7.93;;;2.38;;
13943;SDS011;7044;53.286;8.534;2022-07-23T05:21:18;4.13;;;2.15;;
13943;SDS011;7044;53.286;8.534;2022-07-23T05:23:47;2.00;;;1.70;;
13943;SDS011;7044;53.286;8.534;2022-07-23T05:26:14;1.80;;;1.52;;
13943;SDS011;7044;53.286;8.534;2022-07-23T05:28:40;2.00;;;1.48;;
13943;SDS011;7044;53.286;8.534;2022-07-23T05:31:07;4.13;;;1.85;;
13943;SDS011;7044;53.286;8.534;2022-07-23T05:33:34;4.85;;;1.67;;
13943;SDS011;7044;53.286;8.534;2022-07-23T05:36:02;2.22;;;1.70;;
13943;SDS011;7044;53.286;8.534;2022-07-23T05:38:29;2.40;;;1.67;;
13943;SDS011;7044;53.286;8.534;2022-07-23T05:40:58;2.53;;;1.65;;
13943;SDS011;7044;53.286;8.534;2022-07-23T05:43:26;4.20;;;1.88;;
13943;SDS011;7044;53.286;8.534;2022-07-23T05:45:53;3.00;;;1.92;;
13943;SDS011;7044;53.286;8.534;2022-07-23T05:48:21;2.85;;;1.70;;
13943;SDS011;7044;53.286;8.534;2022-07-23T05:50:48;4.25;;;2.85;;
13943;SDS011;7044;53.286;8.534;2022-07-23T05:53:15;3.15;;;1.65;;
13943;SDS011;7044;53.286;8.534;2022-07-23T05:55:41;1.98;;;1.45;;
13943;SDS011;7044;53.286;8.534;2022-07-23T05:58:10;2.63;;;1.30;;
13943;SDS011;7044;53.286;8.534;2022-07-23T06:00:36;4.03;;;1.80;;
13943;SDS011;7044;53.286;8.534;2022-07-23T06:03:04;4.43;;;1.50;;
13943;SDS011;7044;53.286;8.534;2022-07-23T06:05:31;2.55;;;1.70;;
13943;SDS011;7044;53.286;8.534;2022-07-23T06:07:59;4.32;;;1.73;;
13943;SDS011;7044;53.286;8.534;2022-07-23T06:10:27;1.80;;;1.30;;
13943;SDS011;7044;53.286;8.534;2022-07-23T06:12:54;3.70;;;1.70;;
13943;SDS011;7044;53.286;8.534;2022-07-23T06:15:22;2.15;;;1.50;;
13943;SDS011;7044;53.286;8.534;2022-07-23T06:17:49;1.42;;;1.33;;
13943;SDS011;7044;53.286;8.534;2022-07-23T06:20:16;2.38;;;1.60;;
13943;SDS011;7044;53.286;8.534;2022-07-23T06:22:43;2.15;;;1.50;;
13943;SDS011;7044;53.286;8.534;2022-07-23T06:25:09;2.28;;;1.60;;
13943;SDS011;7044;53.286;8.534;2022-07-23T06:27:36;4.40;;;1.88;;
13943;SDS011;7044;53.286;8.534;2022-07-23T06:30:03;2.70;;;1.85;;
13943;SDS011;7044;53.286;8.534;2022-07-23T06:32:34;3.08;;;1.58;;
13943;SDS011;7044;53.286;8.534;2022-07-23T06:35:01;6.43;;;2.25;;
13943;SDS011;7044;53.286;8.534;2022-07-23T06:37:28;3.25;;;1.65;;
13943;SDS011;7044;53.286;8.534;2022-07-23T06:39:55;2.70;;;2.15;;
13943;SDS011;7044;53.286;8.534;2022-07-23T06:42:21;3.45;;;1.98;;
13943;SDS011;7044;53.286;8.534;2022-07-23T06:44:48;2.72;;;1.83;;
13943;SDS011;7044;53.286;8.534;2022-07-23T06:47:15;1.83;;;1.67;;
13943;SDS011;7044;53.286;8.534;2022-07-23T06:49:43;4.03;;;1.60;;
13943;SDS011;7044;53.286;8.534;2022-07-23T06:52:10;4.43;;;1.95;;
13943;SDS011;7044;53.286;8.534;2022-07-23T06:54:37;3.17;;;2.03;;
13943;SDS011;7044;53.286;8.534;2022-07-23T06:57:04;4.82;;;1.85;;
13943;SDS011;7044;53.286;8.534;2022-07-23T06:59:32;2.20;;;1.75;;
13943;SDS011;7044;53.286;8.534;2022-07-23T07:02:01;3.15;;;2.08;;
13943;SDS011;7044;53.286;8.534;2022-07-23T07:04:28;2.88;;;1.80;;
13943;SDS011;7044;53.286;8.534;2022-07-23T07:07:00;1.85;;;1.70;;
13943;SDS011;7044;53.286;8.534;2022-07-23T07:09:29;2.28;;;1.48;;
13943;SDS011;7044;53.286;8.534;2022-07-23T07:11:56;1.50;;;1.40;;
13943;SDS011;7044;53.286;8.534;2022-07-23T07:14:23;3.67;;;1.73;;
13943;SDS011;7044;53.286;8.534;2022-07-23T07:16:49;3.40;;;1.70;;
13943;SDS011;7044;53.286;8.534;2022-07-23T07:19:16;2.38;;;1.85;;
13943;SDS011;7044;53.286;8.534;2022-07-23T07:21:43;3.58;;;1.95;;
13943;SDS011;7044;53.286;8.534;2022-07-23T07:24:11;2.65;;;1.65;;
13943;SDS011;7044;53.286;8.534;2022-07-23T07:26:38;3.72;;;2.00;;
13943;SDS011;7044;53.286;8.534;2022-07-23T07:29:05;5.00;;;1.70;;
13943;SDS011;7044;53.286;8.534;2022-07-23T07:31:32;5.38;;;2.08;;
13943;SDS011;7044;53.286;8.534;2022-07-23T07:33:59;2.58;;;1.88;;
13943;SDS011;7044;53.286;8.534;2022-07-23T07:36:26;1.80;;;1.70;;
13943;SDS011;7044;53.286;8.534;2022-07-23T07:38:52;2.08;;;1.88;;
13943;SDS011;7044;53.286;8.534;2022-07-23T07:41:21;6.05;;;2.13;;
13943;SDS011;7044;53.286;8.534;2022-07-23T07:43:49;3.65;;;2.10;;
13943;SDS011;7044;53.286;8.534;2022-07-23T07:46:16;2.53;;;2.20;;
13943;SDS011;7044;53.286;8.534;2022-07-23T07:48:42;3.08;;;1.65;;
13943;SDS011;7044;53.286;8.534;2022-07-23T07:51:09;2.00;;;1.73;;
13943;SDS011;7044;53.286;8.534;2022-07-23T07:53:37;4.32;;;1.63;;
13943;SDS011;7044;53.286;8.534;2022-07-23T07:56:04;2.38;;;1.63;;
13943;SDS011;7044;53.286;8.534;2022-07-23T07:58:32;1.60;;;1.42;;
13943;SDS011;7044;53.286;8.534;2022-07-23T08:00:59;2.85;;;1.85;;
13943;SDS011;7044;53.286;8.534;2022-07-23T08:03:27;4.03;;;1.80;;
13943;SDS011;7044;53.286;8.534;2022-07-23T08:05:54;1.92;;;1.33;;
13943;SDS011;7044;53.286;8.534;2022-07-23T08:08:21;1.58;;;1.40;;
13943;SDS011;7044;53.286;8.534;2022-07-23T08:10:47;7.75;;;1.25;;
13943;SDS011;7044;53.286;8.534;2022-07-23T08:13:15;2.25;;;1.25;;
13943;SDS011;7044;53.286;8.534;2022-07-23T08:15:43;1.20;;;1.10;;
13943;SDS011;7044;53.286;8.534;2022-07-23T08:18:11;2.13;;;0.90;;
13943;SDS011;7044;53.286;8.534;2022-07-23T08:20:37;3.97;;;1.00;;
13943;SDS011;7044;53.286;8.534;2022-07-23T08:23:04;1.48;;;0.85;;
13943;SDS011;7044;53.286;8.534;2022-07-23T08:25:33;1.33;;;0.98;;
13943;SDS011;7044;53.286;8.534;2022-07-23T08:28:02;3.08;;;0.90;;
13943;SDS011;7044;53.286;8.534;2022-07-23T08:30:31;0.85;;;0.75;;
13943;SDS011;7044;53.286;8.534;2022-07-23T08:33:00;1.70;;;0.95;;
13943;SDS011;7044;53.286;8.534;2022-07-23T08:35:30;2.55;;;0.80;;
13943;SDS011;7044;53.286;8.534;2022-07-23T08:37:58;2.67;;;1.23;;
13943;SDS011;7044;53.286;8.534;2022-07-23T08:40:26;0.90;;;0.90;;
13943;SDS011;7044;53.286;8.534;2022-07-23T08:42:54;1.95;;;0.75;;
13943;SDS011;7044;53.286;8.534;2022-07-23T08:45:22;1.17;;;0.88;;
13943;SDS011;7044;53.286;8.534;2022-07-23T08:47:50;1.75;;;0.85;;
13943;SDS011;7044;53.286;8.534;2022-07-23T08:50:19;3.85;;;1.10;;
13943;SDS011;7044;53.286;8.534;2022-07-23T08:52:48;2.10;;;0.82;;
13943;SDS011;7044;53.286;8.534;2022-07-23T08:55:16;3.10;;;0.80;;
13943;SDS011;7044;53.286;8.534;2022-07-23T08:57:43;2.30;;;0.77;;
13943;SDS011;7044;53.286;8.534;2022-07-23T09:00:10;0.60;;;0.60;;
13943;SDS011;7044;53.286;8.534;2022-07-23T09:02:41;1.42;;;0.90;;
13943;SDS011;7044;53.286;8.534;2022-07-23T09:05:09;0.80;;;0.80;;
13943;SDS011;7044;53.286;8.534;2022-07-23T09:08:03;0.80;;;0.70;;
13943;SDS011;7044;53.286;8.534;2022-07-23T09:10:47;3.67;;;0.73;;
13943;SDS011;7044;53.286;8.534;2022-07-23T09:13:23;6.32;;;1.30;;
13943;SDS011;7044;53.286;8.534;2022-07-23T09:15:54;1.15;;;0.70;;
13943;SDS011;7044;53.286;8.534;2022-07-23T09:18:34;1.30;;;0.57;;
13943;SDS011;7044;53.286;8.534;2022-07-23T09:21:16;2.05;;;0.70;;
13943;SDS011;7044;53.286;8.534;2022-07-23T09:23:54;1.10;;;0.80;;
13943;SDS011;7044;53.286;8.534;2022-07-23T09:26:27;3.15;;;0.68;;
13943;SDS011;7044;53.286;8.534;2022-07-23T09:29:05;1.02;;;0.90;;
13943;SDS011;7044;53.286;8.534;2022-07-23T09:31:41;1.45;;;0.98;;
13943;SDS011;7044;53.286;8.534;2022-07-23T09:34:14;1.08;;;0.82;;
13943;SDS011;7044;53.286;8.534;2022-07-23T09:36:43;2.65;;;0.77;;
13943;SDS011;7044;53.286;8.534;2022-07-23T09:39:12;3.20;;;1.00;;
13943;SDS011;7044;53.286;8.534;2022-07-23T09:41:41;1.40;;;0.80;;
13943;SDS011;7044;53.286;8.534;2022-07-23T09:44:09;1.25;;;0.70;;
13943;SDS011;7044;53.286;8.534;2022-07-23T09:46:40;0.95;;;0.95;;
13943;SDS011;7044;53.286;8.534;2022-07-23T09:49:17;0.93;;;0.85;;
13943;SDS011;7044;53.286;8.534;2022-07-23T09:51:47;1.85;;;0.70;;
13943;SDS011;7044;53.286;8.534;2022-07-23T09:54:25;1.17;;;0.70;;
13943;SDS011;7044;53.286;8.534;2022-07-23T09:56:55;0.95;;;0.80;;
13943;SDS011;7044;53.286;8.534;2022-07-23T09:59:24;0.65;;;0.60;;
13943;SDS011;7044;53.286;8.534;2022-07-23T10:01:53;1.42;;;0.80;;
13943;SDS011;7044;53.286;8.534;2022-07-23T10:04:23;1.23;;;0.65;;
13943;SDS011;7044;53.286;8.534;2022-07-23T10:06:52;2.15;;;0.90;;
13943;SDS011;7044;53.286;8.534;2022-07-23T10:09:26;1.85;;;1.10;;
13943;SDS011;7044;53.286;8.534;2022-07-23T10:11:55;0.80;;;0.70;;
13943;SDS011;7044;53.286;8.534;2022-07-23T10:14:40;0.68;;;0.68;;
13943;SDS011;7044;53.286;8.534;2022-07-23T10:17:08;1.63;;;0.77;;
13943;SDS011;7044;53.286;8.534;2022-07-23T10:19:35;0.57;;;0.57;;
13943;SDS011;7044;53.286;8.534;2022-07-23T10:22:03;0.70;;;0.70;;
13943;SDS011;7044;53.286;8.534;2022-07-23T10:24:49;0.50;;;0.50;;
13943;SDS011;7044;53.286;8.534;2022-07-23T10:27:42;2.42;;;0.80;;
13943;SDS011;7044;53.286;8.534;2022-07-23T10:30:26;1.38;;;0.68;;
13943;SDS011;7044;53.286;8.534;2022-07-23T10:33:01;2.42;;;0.70;;
13943;SDS011;7044;53.286;8.534;2022-07-23T10:35:39;0.50;;;0.50;;
13943;SDS011;7044;53.286;8.534;2022-07-23T10:38:15;0.70;;;0.70;;
13943;SDS011;7044;53.286;8.534;2022-07-23T10:40:56;1.27;;;0.70;;
13943;SDS011;7044;53.286;8.534;2022-07-23T10:43:25;1.83;;;1.00;;
13943;SDS011;7044;53.286;8.534;2022-07-23T10:45:52;0.98;;;0.70;;
13943;SDS011;7044;53.286;8.534;2022-07-23T10:48:20;2.58;;;1.17;;
13943;SDS011;7044;53.286;8.534;2022-07-23T10:51:07;0.65;;;0.63;;
13943;SDS011;7044;53.286;8.534;2022-07-23T10:53:54;1.00;;;0.80;;
13943;SDS011;7044;53.286;8.534;2022-07-23T11:02:38;0.65;;;0.65;;
13943;SDS011;7044;53.286;8.534;2022-07-23T11:05:06;1.80;;;0.80;;
13943;SDS011;7044;53.286;8.534;2022-07-23T11:07:35;1.13;;;0.80;;
13943;SDS011;7044;53.286;8.534;2022-07-23T11:10:02;1.13;;;0.70;;
13943;SDS011;7044;53.286;8.534;2022-07-23T11:12:37;0.40;;;0.40;;
13943;SDS011;7044;53.286;8.534;2022-07-23T11:15:05;0.75;;;0.50;;
13943;SDS011;7044;53.286;8.534;2022-07-23T11:17:34;0.98;;;0.75;;
13943;SDS011;7044;53.286;8.534;2022-07-23T11:20:19;1.48;;;0.80;;
13943;SDS011;7044;53.286;8.534;2022-07-23T11:22:48;1.70;;;0.70;;
13943;SDS011;7044;53.286;8.534;2022-07-23T11:25:30;1.17;;;1.00;;
13943;SDS011;7044;53.286;8.534;2022-07-23T11:28:10;2.50;;;0.75;;
13943;SDS011;7044;53.286;8.534;2022-07-23T11:30:40;1.33;;;0.60;;
13943;SDS011;7044;53.286;8.534;2022-07-23T11:33:16;1.95;;;0.95;;
13943;SDS011;7044;53.286;8.534;2022-07-23T11:35:45;1.40;;;0.90;;
13943;SDS011;7044;53.286;8.534;2022-07-23T11:38:13;1.95;;;1.10;;
13943;SDS011;7044;53.286;8.534;2022-07-23T11:40:43;1.60;;;0.80;;
13943;SDS011;7044;53.286;8.534;2022-07-23T11:43:13;1.00;;;0.85;;
13943;SDS011;7044;53.286;8.534;2022-07-23T11:45:40;0.85;;;0.70;;
13943;SDS011;7044;53.286;8.534;2022-07-23T11:48:09;1.55;;;0.77;;
13943;SDS011;7044;53.286;8.534;2022-07-23T11:50:42;0.77;;;0.70;;
13943;SDS011;7044;53.286;8.534;2022-07-23T11:53:08;4.47;;;1.23;;
13943;SDS011;7044;53.286;8.534;2022-07-23T11:55:35;0.77;;;0.75;;
13943;SDS011;7044;53.286;8.534;2022-07-23T11:58:02;3.03;;;1.02;;
13943;SDS011;7044;53.286;8.534;2022-07-23T12:00:31;1.33;;;0.90;;
13943;SDS011;7044;53.286;8.534;2022-07-23T12:02:59;2.13;;;0.93;;
13943;SDS011;7044;53.286;8.534;2022-07-23T12:05:28;1.45;;;0.98;;
13943;SDS011;7044;53.286;8.534;2022-07-23T12:07:56;2.10;;;1.25;;
13943;SDS011;7044;53.286;8.534;2022-07-23T12:10:24;1.10;;;0.80;;
13943;SDS011;7044;53.286;8.534;2022-07-23T12:12:53;2.55;;;0.95;;
13943;SDS011;7044;53.286;8.534;2022-07-23T12:15:23;0.82;;;0.80;;
13943;SDS011;7044;53.286;8.534;2022-07-23T12:17:52;1.23;;;0.98;;
13943;SDS011;7044;53.286;8.534;2022-07-23T12:20:21;1.95;;;1.40;;
13943;SDS011;7044;53.286;8.534;2022-07-23T12:22:49;1.30;;;0.88;;
13943;SDS011;7044;53.286;8.534;2022-07-23T12:25:19;3.97;;;1.10;;
13943;SDS011;7044;53.286;8.534;2022-07-23T12:27:57;1.67;;;1.05;;
13943;SDS011;7044;53.286;8.534;2022-07-23T12:30:26;0.65;;;0.65;;
13943;SDS011;7044;53.286;8.534;2022-07-23T12:32:56;1.42;;;1.00;;
13943;SDS011;7044;53.286;8.534;2022-07-23T12:35:29;1.25;;;0.82;;
13943;SDS011;7044;53.286;8.534;2022-07-23T12:37:59;2.80;;;0.80;;
13943;SDS011;7044;53.286;8.534;2022-07-23T12:40:27;4.28;;;0.90;;
13943;SDS011;7044;53.286;8.534;2022-07-23T12:42:57;2.55;;;0.82;;
13943;SDS011;7044;53.286;8.534;2022-07-23T12:45:25;2.63;;;0.82;;
13943;SDS011;7044;53.286;8.534;2022-07-23T12:47:58;2.05;;;1.05;;
13943;SDS011;7044;53.286;8.534;2022-07-23T12:50:35;0.75;;;0.73;;
13943;SDS011;7044;53.286;8.534;2022-07-23T12:53:09;3.22;;;1.00;;
13943;SDS011;7044;53.286;8.534;2022-07-23T12:55:38;2.35;;;0.93;;
13943;SDS011;7044;53.286;8.534;2022-07-23T12:58:06;0.73;;;0.73;;
13943;SDS011;7044;53.286;8.534;2022-07-23T13:00:56;3.40;;;1.00;;
13943;SDS011;7044;53.286;8.534;2022-07-23T13:03:27;0.70;;;0.70;;
13943;SDS011;7044;53.286;8.534;2022-07-23T13:05:55;0.80;;;0.80;;
13943;SDS011;7044;53.286;8.534;2022-07-23T13:08:23;1.58;;;1.00;;
13943;SDS011;7044;53.286;8.534;2022-07-23T13:10:51;1.45;;;1.20;;
13943;SDS011;7044;53.286;8.534;2022-07-23T13:13:20;4.65;;;1.15;;
13943;SDS011;7044;53.286;8.534;2022-07-23T13:15:48;0.75;;;0.75;;
13943;SDS011;7044;53.286;8.534;2022-07-23T13:18:15;1.85;;;1.00;;
13943;SDS011;7044;53.286;8.534;2022-07-23T13:20:44;0.80;;;0.80;;
13943;SDS011;7044;53.286;8.534;2022-07-23T13:23:12;1.13;;;0.80;;
13943;SDS011;7044;53.286;8.534;2022-07-23T13:25:40;1.63;;;0.90;;
13943;SDS011;7044;53.286;8.534;2022-07-23T13:28:07;1.90;;;1.10;;
13943;SDS011;7044;53.286;8.534;2022-07-23T13:30:34;1.25;;;0.90;;
13943;SDS011;7044;53.286;8.534;2022-07-23T13:33:02;1.95;;;0.85;;
13943;SDS011;7044;53.286;8.534;2022-07-23T13:35:29;2.72;;;0.90;;
13943;SDS011;7044;53.286;8.534;2022-07-23T13:37:58;3.65;;;1.08;;
13943;SDS011;7044;53.286;8.534;2022-07-23T13:40:25;1.20;;;1.02;;
13943;SDS011;7044;53.286;8.534;2022-07-23T13:42:52;2.35;;;1.00;;
13943;SDS011;7044;53.286;8.534;2022-07-23T13:45:19;0.90;;;0.90;;
13943;SDS011;7044;53.286;8.534;2022-07-23T13:47:45;2.30;;;0.93;;
13943;SDS011;7044;53.286;8.534;2022-07-23T13:50:12;2.03;;;0.95;;
13943;SDS011;7044;53.286;8.534;2022-07-23T13:52:41;0.90;;;0.90;;
13943;SDS011;7044;53.286;8.534;2022-07-23T13:55:09;1.77;;;0.90;;
13943;SDS011;7044;53.286;8.534;2022-07-23T13:57:37;2.20;;;1.02;;
13943;SDS011;7044;53.286;8.534;2022-07-23T14:00:05;2.08;;;1.02;;
13943;SDS011;7044;53.286;8.534;2022-07-23T14:02:34;1.50;;;1.10;;
13943;SDS011;7044;53.286;8.534;2022-07-23T14:05:02;1.20;;;0.85;;
13943;SDS011;7044;53.286;8.534;2022-07-23T14:07:30;0.68;;;0.68;;
13943;SDS011;7044;53.286;8.534;2022-07-23T14:09:57;1.80;;;0.85;;
13943;SDS011;7044;53.286;8.534;2022-07-23T14:12:25;1.05;;;1.00;;
13943;SDS011;7044;53.286;8.534;2022-07-23T14:14:52;1.23;;;0.90;;
13943;SDS011;7044;53.286;8.534;2022-07-23T14:17:19;0.98;;;0.98;;
13943;SDS011;7044;53.286;8.534;2022-07-23T14:19:46;1.02;;;0.80;;
13943;SDS011;7044;53.286;8.534;2022-07-23T14:22:13;0.90;;;0.90;;
13943;SDS011;7044;53.286;8.534;2022-07-23T14:24:40;0.82;;;0.75;;
13943;SDS011;7044;53.286;8.534;2022-07-23T14:27:07;1.48;;;0.98;;
13943;SDS011;7044;53.286;8.534;2022-07-23T14:29:35;1.70;;;1.20;;
13943;SDS011;7044;53.286;8.534;2022-07-23T14:32:03;1.58;;;1.00;;
13943;SDS011;7044;53.286;8.534;2022-07-23T14:34:33;1.45;;;0.90;;
13943;SDS011;7044;53.286;8.534;2022-07-23T14:37:01;1.20;;;0.80;;
13943;SDS011;7044;53.286;8.534;2022-07-23T14:39:28;5.55;;;1.10;;
13943;SDS011;7044;53.286;8.534;2022-07-23T14:41:55;1.35;;;1.00;;
13943;SDS011;7044;53.286;8.534;2022-07-23T14:44:22;4.30;;;1.23;;
13943;SDS011;7044;53.286;8.534;2022-07-23T14:46:50;2.67;;;0.90;;
13943;SDS011;7044;53.286;8.534;2022-07-23T14:49:18;2.05;;;1.00;;
13943;SDS011;7044;53.286;8.534;2022-07-23T14:51:46;1.27;;;1.15;;
13943;SDS011;7044;53.286;8.534;2022-07-23T14:54:13;2.97;;;1.00;;
13943;SDS011;7044;53.286;8.534;2022-07-23T14:56:40;3.45;;;0.90;;
13943;SDS011;7044;53.286;8.534;2022-07-23T14:59:07;1.02;;;0.95;;
13943;SDS011;7044;53.286;8.534;2022-07-23T15:01:34;1.50;;;0.70;;
13943;SDS011;7044;53.286;8.534;2022-07-23T15:04:03;1.75;;;0.93;;
13943;SDS011;7044;53.286;8.534;2022-07-23T15:06:33;1.30;;;1.20;;
13943;SDS011;7044;53.286;8.534;2022-07-23T15:09:00;1.67;;;0.95;;
13943;SDS011;7044;53.286;8.534;2022-07-23T15:11:27;2.08;;;1.02;;
13943;SDS011;7044;53.286;8.534;2022-07-23T15:13:57;1.52;;;1.05;;